KMRC/MRC METAR and TAF weather

Enter ICAO airport designator
Station Type Date Time Source
KMRC METAR 2022/01/19 19:20 UTC NOAA

KMRC 191920Z AUTO 21014G23KT 5SM HZ FEW049 SCT080 16/13 A2995 RMK A01


Station Type Date Time Source
KMRC Decoded METAR 2022/01/19 19:20 UTC NOAA

Columbia / Maury County, TN, United States (KMRC) 35-33N 087-11W
Jan 19, 2022 - 02:20 PM EST / 2022.01.19 1920 UTC
Wind: from the SSW (210 degrees) at 16 MPH (14 KT) gusting to 26 MPH (23 KT):0
Visibility: 5 mile(s):0
Sky conditions: partly cloudy
Weather: haze
Temperature: 60 F (16 C)
Dew Point: 55 F (13 C)
Relative Humidity: 82%
Pressure (altimeter): 29.95 in. Hg (1014 hPa)
ob: KMRC 191920Z AUTO 21014G23KT 5SM HZ FEW049 SCT080 16/13 A2995 RMK A01
cycle: 19

Station Type Date Time Source
KMRC TAF 2009/08/31 19:45 UTC NOAA

METAR KMRC 311945Z AUTO 06008KT 10SM CLR 26/12 A3010
RMK AO1 T02550116 $

Example: see airport list